sensor_id;sensor_type;location;lat;lon;timestamp;temperature;humidity
9271;DHT22;4673;53.458;9.940;2023-04-15T00:00:27;7.70;87.20
9271;DHT22;4673;53.458;9.940;2023-04-15T00:02:53;7.70;87.20
9271;DHT22;4673;53.458;9.940;2023-04-15T00:05:20;7.60;88.00
9271;DHT22;4673;53.458;9.940;2023-04-15T00:07:45;7.70;88.20
9271;DHT22;4673;53.458;9.940;2023-04-15T00:10:11;7.70;88.40
9271;DHT22;4673;53.458;9.940;2023-04-15T00:12:37;7.60;88.60
9271;DHT22;4673;53.458;9.940;2023-04-15T00:15:03;7.70;89.00
9271;DHT22;4673;53.458;9.940;2023-04-15T00:17:29;7.70;89.00
9271;DHT22;4673;53.458;9.940;2023-04-15T00:19:55;7.60;89.20
9271;DHT22;4673;53.458;9.940;2023-04-15T00:22:21;7.60;89.90
9271;DHT22;4673;53.458;9.940;2023-04-15T00:24:47;7.60;90.90
9271;DHT22;4673;53.458;9.940;2023-04-15T00:27:12;7.60;91.40
9271;DHT22;4673;53.458;9.940;2023-04-15T00:29:38;7.40;92.20
9271;DHT22;4673;53.458;9.940;2023-04-15T00:32:04;7.30;93.40
9271;DHT22;4673;53.458;9.940;2023-04-15T00:34:30;7.40;94.50
9271;DHT22;4673;53.458;9.940;2023-04-15T00:36:56;7.30;94.90
9271;DHT22;4673;53.458;9.940;2023-04-15T00:39:22;7.30;95.40
9271;DHT22;4673;53.458;9.940;2023-04-15T00:41:48;7.20;96.10
9271;DHT22;4673;53.458;9.940;2023-04-15T00:44:14;7.20;96.70
9271;DHT22;4673;53.458;9.940;2023-04-15T00:46:40;7.10;97.20
9271;DHT22;4673;53.458;9.940;2023-04-15T00:49:07;7.10;97.70
9271;DHT22;4673;53.458;9.940;2023-04-15T00:51:33;7.10;98.20
9271;DHT22;4673;53.458;9.940;2023-04-15T00:54:05;7.10;98.90
9271;DHT22;4673;53.458;9.940;2023-04-15T00:56:36;7.10;99.20
9271;DHT22;4673;53.458;9.940;2023-04-15T00:59:03;7.10;99.60
9271;DHT22;4673;53.458;9.940;2023-04-15T01:01:30;7.10;99.90
9271;DHT22;4673;53.458;9.940;2023-04-15T01:03:57;7.20;99.90
9271;DHT22;4673;53.458;9.940;2023-04-15T01:06:23;7.20;99.90
9271;DHT22;4673;53.458;9.940;2023-04-15T01:08:49;7.10;99.90
9271;DHT22;4673;53.458;9.940;2023-04-15T01:11:15;7.10;99.90
9271;DHT22;4673;53.458;9.940;2023-04-15T01:13:41;7.20;99.90
9271;DHT22;4673;53.458;9.940;2023-04-15T01:16:07;7.10;99.90
9271;DHT22;4673;53.458;9.940;2023-04-15T01:18:36;7.10;99.90
9271;DHT22;4673;53.458;9.940;2023-04-15T01:21:04;7.10;99.90
9271;DHT22;4673;53.458;9.940;2023-04-15T01:23:31;7.00;99.90
9271;DHT22;4673;53.458;9.940;2023-04-15T01:25:58;7.00;99.90
9271;DHT22;4673;53.458;9.940;2023-04-15T01:28:24;7.00;99.90
9271;DHT22;4673;53.458;9.940;2023-04-15T01:31:13;6.90;99.90
9271;DHT22;4673;53.458;9.940;2023-04-15T01:33:40;6.90;99.90
9271;DHT22;4673;53.458;9.940;2023-04-15T01:36:07;6.90;99.90
9271;DHT22;4673;53.458;9.940;2023-04-15T01:38:35;6.80;99.90
9271;DHT22;4673;53.458;9.940;2023-04-15T01:41:01;6.90;99.90
9271;DHT22;4673;53.458;9.940;2023-04-15T01:43:28;6.90;99.90
9271;DHT22;4673;53.458;9.940;2023-04-15T01:45:54;6.90;99.90
9271;DHT22;4673;53.458;9.940;2023-04-15T01:48:21;6.90;99.90
9271;DHT22;4673;53.458;9.940;2023-04-15T01:50:47;6.90;99.90
9271;DHT22;4673;53.458;9.940;2023-04-15T01:53:13;6.90;99.90
9271;DHT22;4673;53.458;9.940;2023-04-15T01:55:40;6.90;99.90
9271;DHT22;4673;53.458;9.940;2023-04-15T01:58:06;6.80;99.90
9271;DHT22;4673;53.458;9.940;2023-04-15T02:00:32;6.80;99.90
9271;DHT22;4673;53.458;9.940;2023-04-15T02:02:58;6.80;99.90
9271;DHT22;4673;53.458;9.940;2023-04-15T02:05:24;6.80;99.90
9271;DHT22;4673;53.458;9.940;2023-04-15T02:07:50;6.80;99.90
9271;DHT22;4673;53.458;9.940;2023-04-15T02:10:15;6.80;99.90
9271;DHT22;4673;53.458;9.940;2023-04-15T02:12:41;6.90;99.90
9271;DHT22;4673;53.458;9.940;2023-04-15T02:15:08;6.80;99.90
9271;DHT22;4673;53.458;9.940;2023-04-15T02:17:37;6.90;99.90
9271;DHT22;4673;53.458;9.940;2023-04-15T02:20:03;6.90;99.90
9271;DHT22;4673;53.458;9.940;2023-04-15T02:22:33;6.90;99.90
9271;DHT22;4673;53.458;9.940;2023-04-15T02:24:59;6.90;99.90
9271;DHT22;4673;53.458;9.940;2023-04-15T02:27:25;6.90;99.90
9271;DHT22;4673;53.458;9.940;2023-04-15T02:29:50;6.90;99.90
9271;DHT22;4673;53.458;9.940;2023-04-15T02:32:16;7.10;99.90
9271;DHT22;4673;53.458;9.940;2023-04-15T02:34:43;7.00;99.90
9271;DHT22;4673;53.458;9.940;2023-04-15T02:37:10;7.00;99.90
9271;DHT22;4673;53.458;9.940;2023-04-15T02:39:36;7.00;99.90
9271;DHT22;4673;53.458;9.940;2023-04-15T02:42:02;7.00;99.90
9271;DHT22;4673;53.458;9.940;2023-04-15T02:44:27;7.10;99.90
9271;DHT22;4673;53.458;9.940;2023-04-15T02:46:53;7.00;99.90
9271;DHT22;4673;53.458;9.940;2023-04-15T02:49:22;7.00;99.90
9271;DHT22;4673;53.458;9.940;2023-04-15T02:51:48;7.00;99.90
9271;DHT22;4673;53.458;9.940;2023-04-15T02:54:18;7.00;99.90
9271;DHT22;4673;53.458;9.940;2023-04-15T02:56:44;7.00;99.90
9271;DHT22;4673;53.458;9.940;2023-04-15T02:59:10;7.00;99.90
9271;DHT22;4673;53.458;9.940;2023-04-15T03:01:36;7.00;99.90
9271;DHT22;4673;53.458;9.940;2023-04-15T03:04:02;7.00;99.90
9271;DHT22;4673;53.458;9.940;2023-04-15T03:06:28;7.10;99.90
9271;DHT22;4673;53.458;9.940;2023-04-15T03:08:53;7.00;99.90
9271;DHT22;4673;53.458;9.940;2023-04-15T03:11:19;7.00;99.90
9271;DHT22;4673;53.458;9.940;2023-04-15T03:13:45;7.00;99.90
9271;DHT22;4673;53.458;9.940;2023-04-15T03:16:11;7.00;99.90
9271;DHT22;4673;53.458;9.940;2023-04-15T03:18:37;7.00;99.90
9271;DHT22;4673;53.458;9.940;2023-04-15T03:21:03;7.00;99.90
9271;DHT22;4673;53.458;9.940;2023-04-15T03:23:30;7.00;99.90
9271;DHT22;4673;53.458;9.940;2023-04-15T03:25:56;6.90;99.90
9271;DHT22;4673;53.458;9.940;2023-04-15T03:28:23;7.00;99.90
9271;DHT22;4673;53.458;9.940;2023-04-15T03:30:48;7.00;99.90
9271;DHT22;4673;53.458;9.940;2023-04-15T03:33:14;7.10;99.90
9271;DHT22;4673;53.458;9.940;2023-04-15T03:35:40;7.10;99.90
9271;DHT22;4673;53.458;9.940;2023-04-15T03:38:05;7.10;99.90
9271;DHT22;4673;53.458;9.940;2023-04-15T03:40:31;7.10;99.90
9271;DHT22;4673;53.458;9.940;2023-04-15T03:42:57;7.00;99.90
9271;DHT22;4673;53.458;9.940;2023-04-15T03:45:23;7.00;99.90
9271;DHT22;4673;53.458;9.940;2023-04-15T03:47:48;7.00;99.90
9271;DHT22;4673;53.458;9.940;2023-04-15T03:50:14;7.00;99.90
9271;DHT22;4673;53.458;9.940;2023-04-15T03:52:40;7.10;99.90
9271;DHT22;4673;53.458;9.940;2023-04-15T03:55:06;7.10;99.90
9271;DHT22;4673;53.458;9.940;2023-04-15T03:57:33;7.10;99.90
9271;DHT22;4673;53.458;9.940;2023-04-15T04:00:03;7.10;99.90
9271;DHT22;4673;53.458;9.940;2023-04-15T04:02:29;7.10;99.90
9271;DHT22;4673;53.458;9.940;2023-04-15T04:04:54;7.00;99.90
9271;DHT22;4673;53.458;9.940;2023-04-15T04:07:23;7.00;99.90
9271;DHT22;4673;53.458;9.940;2023-04-15T04:09:49;7.10;99.90
9271;DHT22;4673;53.458;9.940;2023-04-15T04:12:14;7.10;99.90
9271;DHT22;4673;53.458;9.940;2023-04-15T04:14:40;7.10;99.90
9271;DHT22;4673;53.458;9.940;2023-04-15T04:17:06;7.00;99.90
9271;DHT22;4673;53.458;9.940;2023-04-15T04:19:31;7.10;99.90
9271;DHT22;4673;53.458;9.940;2023-04-15T04:21:57;7.10;99.90
9271;DHT22;4673;53.458;9.940;2023-04-15T04:24:23;7.10;99.90
9271;DHT22;4673;53.458;9.940;2023-04-15T04:26:48;7.00;99.90
9271;DHT22;4673;53.458;9.940;2023-04-15T04:29:14;7.10;99.90
9271;DHT22;4673;53.458;9.940;2023-04-15T04:31:39;7.10;99.90
9271;DHT22;4673;53.458;9.940;2023-04-15T04:34:05;7.10;99.90
9271;DHT22;4673;53.458;9.940;2023-04-15T04:36:31;7.00;99.90
9271;DHT22;4673;53.458;9.940;2023-04-15T04:38:57;7.10;99.90
9271;DHT22;4673;53.458;9.940;2023-04-15T04:41:22;7.00;99.90
9271;DHT22;4673;53.458;9.940;2023-04-15T04:43:48;7.00;99.90
9271;DHT22;4673;53.458;9.940;2023-04-15T04:46:13;7.00;99.90
9271;DHT22;4673;53.458;9.940;2023-04-15T04:48:39;7.00;99.90
9271;DHT22;4673;53.458;9.940;2023-04-15T04:51:05;7.10;99.90
9271;DHT22;4673;53.458;9.940;2023-04-15T04:53:32;7.00;99.90
9271;DHT22;4673;53.458;9.940;2023-04-15T04:55:58;7.00;99.90
9271;DHT22;4673;53.458;9.940;2023-04-15T04:58:23;7.10;99.90
9271;DHT22;4673;53.458;9.940;2023-04-15T05:00:49;7.10;99.90
9271;DHT22;4673;53.458;9.940;2023-04-15T05:03:15;7.10;99.90
9271;DHT22;4673;53.458;9.940;2023-04-15T05:05:40;7.10;99.90
9271;DHT22;4673;53.458;9.940;2023-04-15T05:08:06;7.10;99.90
9271;DHT22;4673;53.458;9.940;2023-04-15T05:10:32;7.10;99.90
9271;DHT22;4673;53.458;9.940;2023-04-15T05:12:57;7.20;99.90
9271;DHT22;4673;53.458;9.940;2023-04-15T05:15:23;7.20;99.90
9271;DHT22;4673;53.458;9.940;2023-04-15T05:17:49;7.20;99.90
9271;DHT22;4673;53.458;9.940;2023-04-15T05:20:16;7.20;99.90
9271;DHT22;4673;53.458;9.940;2023-04-15T05:22:41;7.20;99.90
9271;DHT22;4673;53.458;9.940;2023-04-15T05:25:07;7.20;99.90
9271;DHT22;4673;53.458;9.940;2023-04-15T05:27:34;7.20;99.90
9271;DHT22;4673;53.458;9.940;2023-04-15T05:29:59;7.20;99.90
9271;DHT22;4673;53.458;9.940;2023-04-15T05:32:25;7.30;99.90
9271;DHT22;4673;53.458;9.940;2023-04-15T05:34:51;7.20;99.90
9271;DHT22;4673;53.458;9.940;2023-04-15T05:37:17;7.30;99.90
9271;DHT22;4673;53.458;9.940;2023-04-15T05:39:45;7.40;99.90
9271;DHT22;4673;53.458;9.940;2023-04-15T05:42:11;7.30;99.90
9271;DHT22;4673;53.458;9.940;2023-04-15T05:44:36;7.40;99.90
9271;DHT22;4673;53.458;9.940;2023-04-15T05:47:02;7.40;99.90
9271;DHT22;4673;53.458;9.940;2023-04-15T05:49:28;7.40;99.90
9271;DHT22;4673;53.458;9.940;2023-04-15T05:51:54;7.40;99.90
9271;DHT22;4673;53.458;9.940;2023-04-15T05:54:19;7.50;99.90
9271;DHT22;4673;53.458;9.940;2023-04-15T05:56:47;7.40;99.90
9271;DHT22;4673;53.458;9.940;2023-04-15T05:59:13;7.50;99.90
9271;DHT22;4673;53.458;9.940;2023-04-15T06:01:38;7.40;99.90
9271;DHT22;4673;53.458;9.940;2023-04-15T06:04:05;7.50;99.90
9271;DHT22;4673;53.458;9.940;2023-04-15T06:06:31;7.40;99.90
9271;DHT22;4673;53.458;9.940;2023-04-15T06:08:57;7.40;99.90
9271;DHT22;4673;53.458;9.940;2023-04-15T06:11:24;7.40;99.90
9271;DHT22;4673;53.458;9.940;2023-04-15T06:13:51;7.50;99.90
9271;DHT22;4673;53.458;9.940;2023-04-15T06:16:16;7.50;99.90
9271;DHT22;4673;53.458;9.940;2023-04-15T06:18:42;7.50;99.90
9271;DHT22;4673;53.458;9.940;2023-04-15T06:21:08;7.50;99.90
9271;DHT22;4673;53.458;9.940;2023-04-15T06:23:34;7.50;99.90
9271;DHT22;4673;53.458;9.940;2023-04-15T06:26:01;7.60;99.90
9271;DHT22;4673;53.458;9.940;2023-04-15T06:28:26;7.50;99.90
9271;DHT22;4673;53.458;9.940;2023-04-15T06:30:53;7.60;99.90
9271;DHT22;4673;53.458;9.940;2023-04-15T06:33:18;7.60;99.90
9271;DHT22;4673;53.458;9.940;2023-04-15T06:35:44;7.50;99.90
9271;DHT22;4673;53.458;9.940;2023-04-15T06:38:10;7.60;99.90
9271;DHT22;4673;53.458;9.940;2023-04-15T06:40:35;7.60;99.90
9271;DHT22;4673;53.458;9.940;2023-04-15T06:43:01;7.60;99.90
9271;DHT22;4673;53.458;9.940;2023-04-15T06:45:27;7.60;99.90
9271;DHT22;4673;53.458;9.940;2023-04-15T06:47:52;7.60;99.90
9271;DHT22;4673;53.458;9.940;2023-04-15T06:50:18;7.60;99.90
9271;DHT22;4673;53.458;9.940;2023-04-15T06:52:43;7.60;99.90
9271;DHT22;4673;53.458;9.940;2023-04-15T06:55:09;7.70;99.90
9271;DHT22;4673;53.458;9.940;2023-04-15T06:57:35;7.70;99.90
9271;DHT22;4673;53.458;9.940;2023-04-15T07:00:01;7.70;99.90
9271;DHT22;4673;53.458;9.940;2023-04-15T07:02:26;7.70;99.90
9271;DHT22;4673;53.458;9.940;2023-04-15T07:04:52;7.70;99.90
9271;DHT22;4673;53.458;9.940;2023-04-15T07:07:18;7.80;99.90
9271;DHT22;4673;53.458;9.940;2023-04-15T07:09:44;7.80;99.90
9271;DHT22;4673;53.458;9.940;2023-04-15T07:12:09;7.90;99.90
9271;DHT22;4673;53.458;9.940;2023-04-15T07:14:35;7.90;99.90
9271;DHT22;4673;53.458;9.940;2023-04-15T07:17:01;7.90;99.90
9271;DHT22;4673;53.458;9.940;2023-04-15T07:19:27;7.80;99.90
9271;DHT22;4673;53.458;9.940;2023-04-15T07:21:52;7.80;99.90
9271;DHT22;4673;53.458;9.940;2023-04-15T07:24:18;7.90;99.90
9271;DHT22;4673;53.458;9.940;2023-04-15T07:26:45;7.80;99.90
9271;DHT22;4673;53.458;9.940;2023-04-15T07:29:10;7.90;99.90
9271;DHT22;4673;53.458;9.940;2023-04-15T07:31:36;8.00;99.90
9271;DHT22;4673;53.458;9.940;2023-04-15T07:34:02;7.90;99.90
9271;DHT22;4673;53.458;9.940;2023-04-15T07:36:29;7.90;99.90
9271;DHT22;4673;53.458;9.940;2023-04-15T07:38:55;8.00;99.90
9271;DHT22;4673;53.458;9.940;2023-04-15T07:41:22;8.10;99.90
9271;DHT22;4673;53.458;9.940;2023-04-15T07:43:48;8.10;99.90
9271;DHT22;4673;53.458;9.940;2023-04-15T07:46:14;8.10;99.90
9271;DHT22;4673;53.458;9.940;2023-04-15T07:48:39;8.10;99.90
9271;DHT22;4673;53.458;9.940;2023-04-15T07:51:05;8.20;99.90
9271;DHT22;4673;53.458;9.940;2023-04-15T07:53:31;8.20;99.90
9271;DHT22;4673;53.458;9.940;2023-04-15T07:55:57;8.30;99.90
9271;DHT22;4673;53.458;9.940;2023-04-15T07:58:23;8.20;99.90
9271;DHT22;4673;53.458;9.940;2023-04-15T08:00:49;8.30;99.90
9271;DHT22;4673;53.458;9.940;2023-04-15T08:03:15;8.40;99.90
9271;DHT22;4673;53.458;9.940;2023-04-15T08:05:41;8.40;99.90
9271;DHT22;4673;53.458;9.940;2023-04-15T08:08:07;8.40;99.90
9271;DHT22;4673;53.458;9.940;2023-04-15T08:10:33;8.40;99.90
9271;DHT22;4673;53.458;9.940;2023-04-15T08:12:58;8.40;99.90
9271;DHT22;4673;53.458;9.940;2023-04-15T08:15:25;8.30;99.90
9271;DHT22;4673;53.458;9.940;2023-04-15T08:17:51;8.20;99.90
9271;DHT22;4673;53.458;9.940;2023-04-15T08:20:17;8.20;99.90
9271;DHT22;4673;53.458;9.940;2023-04-15T08:22:43;8.30;99.90
9271;DHT22;4673;53.458;9.940;2023-04-15T08:25:09;8.40;99.90
9271;DHT22;4673;53.458;9.940;2023-04-15T08:27:34;8.40;99.90
9271;DHT22;4673;53.458;9.940;2023-04-15T08:30:01;8.60;99.90
9271;DHT22;4673;53.458;9.940;2023-04-15T08:32:26;8.60;99.90
9271;DHT22;4673;53.458;9.940;2023-04-15T08:34:52;8.70;99.90
9271;DHT22;4673;53.458;9.940;2023-04-15T08:37:18;8.60;99.90
9271;DHT22;4673;53.458;9.940;2023-04-15T08:39:44;8.60;99.90
9271;DHT22;4673;53.458;9.940;2023-04-15T08:42:11;8.70;99.90
9271;DHT22;4673;53.458;9.940;2023-04-15T08:44:41;8.60;99.90
9271;DHT22;4673;53.458;9.940;2023-04-15T08:47:08;8.70;99.90
9271;DHT22;4673;53.458;9.940;2023-04-15T08:49:38;8.90;99.90
9271;DHT22;4673;53.458;9.940;2023-04-15T08:52:05;8.80;99.90
9271;DHT22;4673;53.458;9.940;2023-04-15T08:54:32;8.80;99.90
9271;DHT22;4673;53.458;9.940;2023-04-15T08:56:58;8.70;99.90
9271;DHT22;4673;53.458;9.940;2023-04-15T08:59:24;8.70;99.90
9271;DHT22;4673;53.458;9.940;2023-04-15T09:01:50;8.70;99.90
9271;DHT22;4673;53.458;9.940;2023-04-15T09:04:17;8.80;99.90
9271;DHT22;4673;53.458;9.940;2023-04-15T09:06:43;9.00;99.90
9271;DHT22;4673;53.458;9.940;2023-04-15T09:09:08;9.10;99.90
9271;DHT22;4673;53.458;9.940;2023-04-15T09:11:34;9.20;99.90
9271;DHT22;4673;53.458;9.940;2023-04-15T09:14:00;9.20;99.90
9271;DHT22;4673;53.458;9.940;2023-04-15T09:16:26;9.20;99.90
9271;DHT22;4673;53.458;9.940;2023-04-15T09:18:53;9.30;99.90
9271;DHT22;4673;53.458;9.940;2023-04-15T09:21:18;9.10;99.90
9271;DHT22;4673;53.458;9.940;2023-04-15T09:23:59;8.90;99.90
9271;DHT22;4673;53.458;9.940;2023-04-15T09:26:36;9.00;99.90
9271;DHT22;4673;53.458;9.940;2023-04-15T09:29:11;9.10;99.90
9271;DHT22;4673;53.458;9.940;2023-04-15T09:31:38;9.20;99.90
9271;DHT22;4673;53.458;9.940;2023-04-15T09:34:04;9.30;99.90
9271;DHT22;4673;53.458;9.940;2023-04-15T09:36:52;9.50;99.90
9271;DHT22;4673;53.458;9.940;2023-04-15T09:39:18;9.40;99.90
9271;DHT22;4673;53.458;9.940;2023-04-15T09:41:44;9.40;99.90
9271;DHT22;4673;53.458;9.940;2023-04-15T09:44:26;9.60;99.90
9271;DHT22;4673;53.458;9.940;2023-04-15T09:46:51;9.70;99.90
9271;DHT22;4673;53.458;9.940;2023-04-15T09:49:17;9.80;99.90
9271;DHT22;4673;53.458;9.940;2023-04-15T09:51:43;9.70;99.90
9271;DHT22;4673;53.458;9.940;2023-04-15T09:54:09;9.70;99.90
9271;DHT22;4673;53.458;9.940;2023-04-15T09:56:36;10.00;99.90
9271;DHT22;4673;53.458;9.940;2023-04-15T09:59:06;10.40;99.90
9271;DHT22;4673;53.458;9.940;2023-04-15T10:01:33;10.60;99.90
9271;DHT22;4673;53.458;9.940;2023-04-15T10:04:02;10.60;98.20
9271;DHT22;4673;53.458;9.940;2023-04-15T10:06:28;10.30;97.10
9271;DHT22;4673;53.458;9.940;2023-04-15T10:08:58;10.20;98.80
9271;DHT22;4673;53.458;9.940;2023-04-15T10:11:27;10.30;98.40
9271;DHT22;4673;53.458;9.940;2023-04-15T10:13:55;10.50;99.20
9271;DHT22;4673;53.458;9.940;2023-04-15T10:16:22;10.60;98.00
9271;DHT22;4673;53.458;9.940;2023-04-15T10:18:56;10.70;96.70
9271;DHT22;4673;53.458;9.940;2023-04-15T10:21:23;10.60;95.60
9271;DHT22;4673;53.458;9.940;2023-04-15T10:23:49;10.80;97.20
9271;DHT22;4673;53.458;9.940;2023-04-15T10:26:16;10.70;95.50
9271;DHT22;4673;53.458;9.940;2023-04-15T10:28:42;10.50;94.80
9271;DHT22;4673;53.458;9.940;2023-04-15T10:31:11;10.70;96.80
9271;DHT22;4673;53.458;9.940;2023-04-15T10:33:37;10.70;96.50
9271;DHT22;4673;53.458;9.940;2023-04-15T10:36:04;11.00;95.30
9271;DHT22;4673;53.458;9.940;2023-04-15T10:38:38;11.10;93.30
9271;DHT22;4673;53.458;9.940;2023-04-15T10:41:24;11.20;93.40
9271;DHT22;4673;53.458;9.940;2023-04-15T10:51:39;11.80;90.50
9271;DHT22;4673;53.458;9.940;2023-04-15T10:59:58;12.30;86.80
9271;DHT22;4673;53.458;9.940;2023-04-15T11:05:11;12.10;85.90
9271;DHT22;4673;53.458;9.940;2023-04-15T11:12:44;12.30;85.40
9271;DHT22;4673;53.458;9.940;2023-04-15T11:15:42;12.10;86.40
9271;DHT22;4673;53.458;9.940;2023-04-15T11:20:48;12.30;84.90
9271;DHT22;4673;53.458;9.940;2023-04-15T11:23:26;12.40;84.60
9271;DHT22;4673;53.458;9.940;2023-04-15T11:25:54;12.50;84.50
9271;DHT22;4673;53.458;9.940;2023-04-15T11:28:28;12.70;84.00
9271;DHT22;4673;53.458;9.940;2023-04-15T11:30:54;12.80;82.50
9271;DHT22;4673;53.458;9.940;2023-04-15T11:33:21;13.10;82.80
9271;DHT22;4673;53.458;9.940;2023-04-15T11:35:48;13.20;81.60
9271;DHT22;4673;53.458;9.940;2023-04-15T11:38:14;13.30;80.50
9271;DHT22;4673;53.458;9.940;2023-04-15T11:40:41;13.30;80.30
9271;DHT22;4673;53.458;9.940;2023-04-15T11:43:11;13.20;79.80
9271;DHT22;4673;53.458;9.940;2023-04-15T11:45:56;13.10;79.30
9271;DHT22;4673;53.458;9.940;2023-04-15T11:48:26;13.10;80.20
9271;DHT22;4673;53.458;9.940;2023-04-15T11:51:03;13.00;79.40
9271;DHT22;4673;53.458;9.940;2023-04-15T11:53:45;12.90;79.30
9271;DHT22;4673;53.458;9.940;2023-04-15T11:56:25;12.90;79.30
9271;DHT22;4673;53.458;9.940;2023-04-15T11:58:53;13.00;79.00
9271;DHT22;4673;53.458;9.940;2023-04-15T12:01:33;13.00;77.30
9271;DHT22;4673;53.458;9.940;2023-04-15T12:03:59;12.90;75.20
9271;DHT22;4673;53.458;9.940;2023-04-15T12:06:32;12.80;75.70
9271;DHT22;4673;53.458;9.940;2023-04-15T12:09:08;13.00;75.60
9271;DHT22;4673;53.458;9.940;2023-04-15T12:11:47;13.10;74.80
9271;DHT22;4673;53.458;9.940;2023-04-15T12:14:25;13.10;73.80
9271;DHT22;4673;53.458;9.940;2023-04-15T12:17:00;13.10;73.20
9271;DHT22;4673;53.458;9.940;2023-04-15T12:19:41;13.30;73.30
9271;DHT22;4673;53.458;9.940;2023-04-15T12:22:12;13.50;73.60
9271;DHT22;4673;53.458;9.940;2023-04-15T12:24:40;13.80;72.50
9271;DHT22;4673;53.458;9.940;2023-04-15T12:27:10;14.00;69.10
9271;DHT22;4673;53.458;9.940;2023-04-15T12:29:38;14.00;68.00
9271;DHT22;4673;53.458;9.940;2023-04-15T12:34:53;13.70;68.80
9271;DHT22;4673;53.458;9.940;2023-04-15T12:37:19;13.80;68.80
9271;DHT22;4673;53.458;9.940;2023-04-15T12:39:46;13.70;68.50
9271;DHT22;4673;53.458;9.940;2023-04-15T12:42:14;13.50;69.20
9271;DHT22;4673;53.458;9.940;2023-04-15T12:44:40;13.30;69.70
9271;DHT22;4673;53.458;9.940;2023-04-15T12:47:07;13.30;70.40
9271;DHT22;4673;53.458;9.940;2023-04-15T12:49:33;13.40;70.90
9271;DHT22;4673;53.458;9.940;2023-04-15T12:52:00;13.50;70.80
9271;DHT22;4673;53.458;9.940;2023-04-15T12:54:26;13.60;70.40
9271;DHT22;4673;53.458;9.940;2023-04-15T12:56:52;13.40;70.40
9271;DHT22;4673;53.458;9.940;2023-04-15T12:59:19;13.50;69.60
9271;DHT22;4673;53.458;9.940;2023-04-15T13:01:46;13.50;70.10
9271;DHT22;4673;53.458;9.940;2023-04-15T13:04:12;13.50;69.60
9271;DHT22;4673;53.458;9.940;2023-04-15T13:06:38;13.40;69.00
9271;DHT22;4673;53.458;9.940;2023-04-15T13:09:04;13.30;70.10
9271;DHT22;4673;53.458;9.940;2023-04-15T13:11:30;13.40;69.20
9271;DHT22;4673;53.458;9.940;2023-04-15T13:13:59;13.40;66.40
9271;DHT22;4673;53.458;9.940;2023-04-15T13:16:25;13.40;67.30
9271;DHT22;4673;53.458;9.940;2023-04-15T13:18:50;13.50;67.60
9271;DHT22;4673;53.458;9.940;2023-04-15T13:21:17;13.70;67.30
9271;DHT22;4673;53.458;9.940;2023-04-15T13:26:10;13.80;66.40
9271;DHT22;4673;53.458;9.940;2023-04-15T13:28:36;13.80;66.10
9271;DHT22;4673;53.458;9.940;2023-04-15T13:31:02;13.80;64.60
9271;DHT22;4673;53.458;9.940;2023-04-15T13:33:28;13.60;64.30
9271;DHT22;4673;53.458;9.940;2023-04-15T13:35:53;13.30;66.20
9271;DHT22;4673;53.458;9.940;2023-04-15T13:38:19;13.50;66.00
9271;DHT22;4673;53.458;9.940;2023-04-15T13:40:45;13.50;65.10
9271;DHT22;4673;53.458;9.940;2023-04-15T13:43:11;13.70;65.10
9271;DHT22;4673;53.458;9.940;2023-04-15T13:45:37;13.80;64.10
9271;DHT22;4673;53.458;9.940;2023-04-15T13:48:03;13.80;63.30
9271;DHT22;4673;53.458;9.940;2023-04-15T13:50:28;13.80;63.90
9271;DHT22;4673;53.458;9.940;2023-04-15T13:52:54;13.70;62.90
9271;DHT22;4673;53.458;9.940;2023-04-15T13:55:20;13.70;63.40
9271;DHT22;4673;53.458;9.940;2023-04-15T13:57:46;13.50;63.30
9271;DHT22;4673;53.458;9.940;2023-04-15T14:00:12;13.40;64.50
9271;DHT22;4673;53.458;9.940;2023-04-15T14:02:39;13.70;65.00
9271;DHT22;4673;53.458;9.940;2023-04-15T14:05:04;13.80;63.20
9271;DHT22;4673;53.458;9.940;2023-04-15T14:07:30;13.80;63.30
9271;DHT22;4673;53.458;9.940;2023-04-15T14:09:56;14.10;62.40
9271;DHT22;4673;53.458;9.940;2023-04-15T14:12:22;14.20;61.40
9271;DHT22;4673;53.458;9.940;2023-04-15T14:14:47;14.30;60.40
9271;DHT22;4673;53.458;9.940;2023-04-15T14:17:13;14.30;60.90
9271;DHT22;4673;53.458;9.940;2023-04-15T14:19:39;14.30;61.10
9271;DHT22;4673;53.458;9.940;2023-04-15T14:22:04;14.50;60.20
9271;DHT22;4673;53.458;9.940;2023-04-15T14:24:30;14.50;58.20
9271;DHT22;4673;53.458;9.940;2023-04-15T14:26:57;14.40;58.00
9271;DHT22;4673;53.458;9.940;2023-04-15T14:29:23;14.30;59.00
9271;DHT22;4673;53.458;9.940;2023-04-15T14:31:49;14.20;58.00
9271;DHT22;4673;53.458;9.940;2023-04-15T14:34:17;14.10;59.10
9271;DHT22;4673;53.458;9.940;2023-04-15T14:36:43;14.00;59.50
9271;DHT22;4673;53.458;9.940;2023-04-15T14:39:09;13.90;58.90
9271;DHT22;4673;53.458;9.940;2023-04-15T14:41:35;13.80;58.30
9271;DHT22;4673;53.458;9.940;2023-04-15T14:44:00;13.60;58.90
9271;DHT22;4673;53.458;9.940;2023-04-15T14:46:26;13.50;58.60
9271;DHT22;4673;53.458;9.940;2023-04-15T14:48:52;13.70;59.00
9271;DHT22;4673;53.458;9.940;2023-04-15T14:51:18;13.80;57.40
9271;DHT22;4673;53.458;9.940;2023-04-15T14:53:44;13.90;57.60
9271;DHT22;4673;53.458;9.940;2023-04-15T14:56:10;14.10;58.40
9271;DHT22;4673;53.458;9.940;2023-04-15T14:58:36;14.20;57.80
9271;DHT22;4673;53.458;9.940;2023-04-15T15:01:03;14.20;57.90
9271;DHT22;4673;53.458;9.940;2023-04-15T15:03:29;14.20;57.10
9271;DHT22;4673;53.458;9.940;2023-04-15T15:05:55;14.10;58.00
9271;DHT22;4673;53.458;9.940;2023-04-15T15:08:22;14.00;57.60
9271;DHT22;4673;53.458;9.940;2023-04-15T15:10:48;14.00;57.40
9271;DHT22;4673;53.458;9.940;2023-04-15T15:13:14;13.90;58.00
9271;DHT22;4673;53.458;9.940;2023-04-15T15:15:40;14.00;58.90
9271;DHT22;4673;53.458;9.940;2023-04-15T15:18:05;14.30;57.90
9271;DHT22;4673;53.458;9.940;2023-04-15T15:20:31;14.40;56.50
9271;DHT22;4673;53.458;9.940;2023-04-15T15:22:57;14.30;56.80
9271;DHT22;4673;53.458;9.940;2023-04-15T15:25:23;14.30;57.20
9271;DHT22;4673;53.458;9.940;2023-04-15T15:27:49;14.30;56.10
9271;DHT22;4673;53.458;9.940;2023-04-15T15:30:15;14.00;56.60
9271;DHT22;4673;53.458;9.940;2023-04-15T15:32:41;14.00;57.00
9271;DHT22;4673;53.458;9.940;2023-04-15T15:35:08;13.90;57.50
9271;DHT22;4673;53.458;9.940;2023-04-15T15:37:37;13.80;57.90
9271;DHT22;4673;53.458;9.940;2023-04-15T15:40:06;13.80;58.00
9271;DHT22;4673;53.458;9.940;2023-04-15T15:42:32;13.70;58.10
9271;DHT22;4673;53.458;9.940;2023-04-15T15:44:59;13.50;58.20
9271;DHT22;4673;53.458;9.940;2023-04-15T15:47:25;13.50;59.20
9271;DHT22;4673;53.458;9.940;2023-04-15T15:49:51;13.60;59.10
9271;DHT22;4673;53.458;9.940;2023-04-15T15:52:17;13.50;59.30
9271;DHT22;4673;53.458;9.940;2023-04-15T15:54:43;13.50;59.50
9271;DHT22;4673;53.458;9.940;2023-04-15T15:57:08;13.50;59.00
9271;DHT22;4673;53.458;9.940;2023-04-15T15:59:35;13.30;59.40
9271;DHT22;4673;53.458;9.940;2023-04-15T16:02:07;13.30;60.50
9271;DHT22;4673;53.458;9.940;2023-04-15T16:04:34;13.40;60.20
9271;DHT22;4673;53.458;9.940;2023-04-15T16:06:59;13.40;60.10
9271;DHT22;4673;53.458;9.940;2023-04-15T16:09:25;13.30;60.40
9271;DHT22;4673;53.458;9.940;2023-04-15T16:11:51;13.10;60.50
9271;DHT22;4673;53.458;9.940;2023-04-15T16:14:16;13.10;61.50
9271;DHT22;4673;53.458;9.940;2023-04-15T16:16:42;13.10;60.70
9271;DHT22;4673;53.458;9.940;2023-04-15T16:19:08;13.10;60.50
9271;DHT22;4673;53.458;9.940;2023-04-15T16:21:33;13.00;61.20
9271;DHT22;4673;53.458;9.940;2023-04-15T16:23:59;13.00;61.90
9271;DHT22;4673;53.458;9.940;2023-04-15T16:26:25;13.00;62.20
9271;DHT22;4673;53.458;9.940;2023-04-15T16:28:51;12.80;62.90
9271;DHT22;4673;53.458;9.940;2023-04-15T16:31:16;12.70;63.50
9271;DHT22;4673;53.458;9.940;2023-04-15T16:33:42;12.50;64.30
9271;DHT22;4673;53.458;9.940;2023-04-15T16:36:08;12.40;64.70
9271;DHT22;4673;53.458;9.940;2023-04-15T16:38:33;12.40;64.70